Time;durP1;ratioP1;P1;durP2;ratioP2;P2;SDS_P1;SDS_P2;PMS_P1;PMS_P2;Temp;Humidity;BMP_temperature;BMP_pressure;BME280_temperature;BME280_humidity;BME280_pressure;Samples;Min_cycle;Max_cycle;Signal;HPM_P1;HPM_P2
2021/03/01 00:02:16;;;;;;;15.20;9.95;;;;;;;16.06;41.19;103364.25;5054311;28;20036;-76
2021/03/01 00:04:41;;;;;;;20.85;11.30;;;;;;;15.95;41.19;103362.69;5054191;28;20104;-77
2021/03/01 00:07:07;;;;;;;14.95;11.45;;;;;;;15.86;41.08;103361.59;5054128;28;20033;-77
2021/03/01 00:09:32;;;;;;;16.83;11.07;;;;;;;15.78;40.94;103360.28;5052841;28;20480;-76
2021/03/01 00:11:58;;;;;;;18.85;13.38;;;;;;;15.75;41.08;103358.09;5053898;28;20028;-77
2021/03/01 00:14:24;;;;;;;19.63;13.25;;;;;;;15.69;41.01;103364.75;5053790;28;20090;-77
2021/03/01 00:16:49;;;;;;;18.23;12.57;;;;;;;15.62;40.90;103361.47;5053534;28;20029;-76
2021/03/01 00:19:15;;;;;;;20.25;12.95;;;;;;;15.52;40.84;103362.31;5053917;28;20029;-77
2021/03/01 00:21:41;;;;;;;19.77;10.63;;;;;;;15.51;40.89;103360.69;5053940;28;20052;-77
2021/03/01 00:24:06;;;;;;;21.55;11.88;;;;;;;15.52;40.82;103358.75;5053703;28;20098;-77
2021/03/01 00:26:32;;;;;;;19.20;12.73;;;;;;;15.45;40.79;103363.75;5053841;28;20112;-76
2021/03/01 00:28:57;;;;;;;22.63;12.80;;;;;;;15.40;40.70;103361.81;5053769;28;20108;-77
2021/03/01 00:31:23;;;;;;;16.33;11.73;;;;;;;15.37;40.67;103364.31;5053644;28;20071;-77
2021/03/01 00:33:49;;;;;;;17.92;10.88;;;;;;;15.31;40.83;103357.19;5053582;28;20558;-77
2021/03/01 00:36:15;;;;;;;20.50;9.68;;;;;;;15.22;41.27;103356.94;5053464;28;20029;-77
2021/03/01 00:38:40;;;;;;;25.17;10.23;;;;;;;15.32;41.35;103348.63;5053106;28;20048;-77
2021/03/01 00:41:06;;;;;;;16.23;8.18;;;;;;;15.37;40.92;103348.63;5052176;28;20028;-77
2021/03/01 00:43:35;;;;;;;17.33;9.27;;;;;;;15.35;41.08;103342.59;5053233;28;20029;-77
2021/03/01 00:46:01;;;;;;;18.27;8.37;;;;;;;15.34;41.25;103338.19;5052850;28;20021;-76
2021/03/01 00:48:27;;;;;;;15.65;8.57;;;;;;;15.35;41.08;103331.56;5052799;28;20265;-77
2021/03/01 00:50:52;;;;;;;17.75;8.40;;;;;;;15.33;41.09;103336.50;5052697;28;20384;-77
2021/03/01 00:53:23;;;;;;;16.98;6.45;;;;;;;15.33;41.19;103333.75;5052474;28;20082;-77
2021/03/01 00:55:48;;;;;;;;;;;;;;;15.22;41.03;103332.16;5052985;28;20028;-76
2021/03/01 00:58:15;;;;;;;13.18;7.30;;;;;;;15.26;40.79;103331.31;5052683;28;19947;-77
2021/03/01 01:00:41;;;;;;;14.10;7.45;;;;;;;15.25;41.08;103326.06;5052668;28;20029;-77
2021/03/01 01:03:06;;;;;;;12.98;7.28;;;;;;;15.26;41.14;103324.97;5052208;28;20486;-77
2021/03/01 01:05:32;;;;;;;12.45;6.28;;;;;;;15.26;41.22;103319.47;5052541;28;20535;-77
2021/03/01 01:07:57;;;;;;;14.57;5.80;;;;;;;15.28;41.16;103322.78;5052351;28;20021;-77
2021/03/01 01:10:23;;;;;;;8.68;5.22;;;;;;;15.27;41.04;103310.13;5052333;28;20483;-77
2021/03/01 01:12:49;;;;;;;13.57;5.32;;;;;;;15.17;41.62;103315.66;5052010;28;20391;-77
2021/03/01 01:15:16;;;;;;;13.25;5.22;;;;;;;15.20;41.46;103312.34;5050902;28;20025;-77
2021/03/01 01:17:42;;;;;;;9.93;4.07;;;;;;;15.23;41.40;103312.59;5052114;28;20391;-77
2021/03/01 01:20:12;;;;;;;10.13;4.35;;;;;;;15.26;41.29;103312.03;5052015;28;20029;-77
2021/03/01 01:22:38;;;;;;;8.88;3.15;;;;;;;15.36;41.47;103313.09;5052042;28;20391;-77
2021/03/01 01:25:06;;;;;;;7.35;3.92;;;;;;;15.44;41.33;103307.81;5051729;28;20032;-77
2021/03/01 01:27:32;;;;;;;10.10;3.90;;;;;;;15.49;41.47;103302.28;5051804;28;20025;-77
2021/03/01 01:29:57;;;;;;;10.13;4.03;;;;;;;15.52;41.50;103304.47;5052395;28;20025;-77
2021/03/01 01:32:23;;;;;;;13.45;3.35;;;;;;;15.52;41.27;103300.88;5052596;28;20029;-77
2021/03/01 01:34:48;;;;;;;16.70;6.35;;;;;;;15.47;41.38;103296.22;5052723;28;20418;-77
2021/03/01 01:37:14;;;;;;;12.65;6.35;;;;;;;15.37;41.31;103295.47;5052473;28;20024;-77
2021/03/01 01:39:40;;;;;;;11.35;6.10;;;;;;;15.26;41.27;103294.66;5052795;28;20024;-78
2021/03/01 01:42:05;;;;;;;14.65;6.88;;;;;;;15.17;41.35;103290.84;5052701;28;20612;-77
2021/03/01 01:44:31;;;;;;;10.30;5.88;;;;;;;15.13;41.25;103292.53;5052693;28;20033;-77
2021/03/01 01:46:57;;;;;;;12.52;5.82;;;;;;;15.09;41.54;103286.75;5052497;28;20039;-77
2021/03/01 01:49:22;;;;;;;8.18;4.70;;;;;;;15.07;41.22;103288.16;5052317;28;20034;-77
2021/03/01 01:51:49;;;;;;;8.52;5.53;;;;;;;15.07;41.20;103285.41;5052513;28;20446;-77
2021/03/01 01:54:15;;;;;;;10.65;3.72;;;;;;;15.14;41.38;103277.66;5052542;28;20491;-77
2021/03/01 01:56:42;;;;;;;6.53;2.90;;;;;;;15.35;41.62;103267.38;5052408;28;20056;-77
2021/03/01 01:59:07;;;;;;;12.35;4.03;;;;;;;15.51;41.74;103271.69;5052461;28;20070;-77
2021/03/01 02:01:34;;;;;;;14.25;5.30;;;;;;;15.60;42.00;103269.97;5052461;28;20029;-77
2021/03/01 02:04:21;;;;;;;11.10;5.85;;;;;;;15.56;42.18;103268.88;5050844;28;20041;-77
2021/03/01 02:06:57;;;;;;;11.88;3.78;;;;;;;15.54;42.22;103277.44;5056555;28;20021;-77
2021/03/01 02:09:40;;;;;;;13.93;8.10;;;;;;;15.53;42.00;103275.78;5056610;28;20112;-77
2021/03/01 02:12:34;;;;;;;21.60;7.80;;;;;;;15.46;41.90;103263.44;5056300;28;20486;-77
2021/03/01 02:15:06;;;;;;;16.20;9.20;;;;;;;15.35;41.58;103259.94;5056888;28;20040;-77
2021/03/01 02:17:32;;;;;;;17.85;7.35;;;;;;;15.12;41.88;103260.63;5056377;28;20087;-77
2021/03/01 02:19:57;;;;;;;18.70;9.88;;;;;;;14.88;42.10;103263.16;5056294;28;20032;-77
2021/03/01 02:22:23;;;;;;;15.75;8.18;;;;;;;14.82;42.19;103253.31;5056195;28;20032;-77
2021/03/01 02:24:59;;;;;;;21.75;12.25;;;;;;;14.80;41.86;103256.31;5056166;28;20033;-77
2021/03/01 02:27:30;;;;;;;13.63;10.23;;;;;;;14.66;41.83;103253.34;5056171;28;20028;-77
2021/03/01 02:30:02;;;;;;;16.20;9.93;;;;;;;14.63;41.53;103251.16;5056004;28;20425;-77
2021/03/01 02:32:30;;;;;;;14.90;8.98;;;;;;;14.57;41.36;103245.94;5056064;28;20029;-77
2021/03/01 02:34:57;;;;;;;15.23;8.27;;;;;;;14.51;41.50;103247.91;5055862;28;20028;-77
2021/03/01 02:37:25;;;;;;;11.68;7.78;;;;;;;14.47;41.34;103245.97;5054278;28;20103;-76
2021/03/01 02:39:53;;;;;;;15.68;7.05;;;;;;;14.39;41.41;103244.56;5054567;28;20024;-77
2021/03/01 02:42:25;;;;;;;14.32;7.60;;;;;;;14.29;41.15;103250.94;5055683;28;20032;-77
2021/03/01 02:44:54;;;;;;;13.52;9.13;;;;;;;14.22;41.08;103244.88;5054548;28;20056;-77
2021/03/01 02:47:20;;;;;;;15.98;8.40;;;;;;;14.23;41.18;103237.47;5055533;28;20037;-77
2021/03/01 02:49:47;;;;;;;11.90;7.25;;;;;;;14.26;40.99;103234.97;5055817;28;20060;-77
2021/03/01 02:52:16;;;;;;;10.57;7.63;;;;;;;14.35;41.12;103235.22;5055587;28;20368;-77
2021/03/01 02:54:42;;;;;;;11.35;9.27;;;;;;;14.47;40.83;103230.28;5055484;28;20036;-77
2021/03/01 02:57:10;;;;;;;13.07;9.82;;;;;;;14.44;40.80;103239.06;5055449;28;20502;-77
2021/03/01 02:59:38;;;;;;;15.27;6.28;;;;;;;14.42;40.78;103233.00;5054075;28;20490;-77
2021/03/01 03:02:05;;;;;;;17.98;6.20;;;;;;;14.58;41.10;103231.06;5055431;28;20033;-77
2021/03/01 03:04:31;;;;;;;11.30;6.32;;;;;;;14.70;41.13;103239.84;5055520;28;20036;-77
2021/03/01 03:06:56;;;;;;;13.27;5.97;;;;;;;15.03;41.25;103232.00;5055288;28;20033;-77
2021/03/01 03:09:24;;;;;;;10.77;4.10;;;;;;;15.29;41.62;103233.53;5055416;28;20501;-77
2021/03/01 03:11:50;;;;;;;14.27;8.27;;;;;;;15.37;41.66;103238.44;5055400;28;20130;-77
2021/03/01 03:14:20;;;;;;;9.82;5.07;;;;;;;15.36;41.65;103230.44;5055045;28;20029;-77
2021/03/01 03:16:48;;;;;;;15.48;8.50;;;;;;;15.36;41.67;103220.25;5053744;28;20044;-77
2021/03/01 03:19:14;;;;;;;11.60;4.97;;;;;;;15.40;41.77;103229.56;5055228;28;20064;-77
2021/03/01 03:21:39;;;;;;;16.42;8.65;;;;;;;15.44;41.84;103221.59;5054988;28;20623;-77
2021/03/01 03:24:06;;;;;;;14.07;5.13;;;;;;;15.52;42.13;103218.22;5054927;28;20059;-77
2021/03/01 03:26:33;;;;;;;10.55;3.90;;;;;;;15.69;42.46;103217.84;5054856;28;20454;-77
2021/03/01 03:28:59;;;;;;;9.65;4.10;;;;;;;15.84;42.46;103222.41;5054971;28;20028;-77
2021/03/01 03:31:25;;;;;;;22.70;10.15;;;;;;;15.90;42.47;103207.47;5054924;28;20055;-77
2021/03/01 03:33:52;;;;;;;22.63;5.13;;;;;;;15.73;42.17;103213.41;5054776;28;20040;-77
2021/03/01 03:36:22;;;;;;;24.00;11.77;;;;;;;15.71;42.12;103207.34;5054852;28;20399;-77
2021/03/01 03:38:54;;;;;;;13.73;4.63;;;;;;;15.66;42.66;103204.66;5054658;28;20056;-77
2021/03/01 03:41:26;;;;;;;16.00;5.68;;;;;;;15.67;42.84;103209.03;5054725;28;20056;-78
2021/03/01 03:43:53;;;;;;;22.58;13.60;;;;;;;15.69;42.37;103212.34;5054779;28;20032;-77
2021/03/01 03:46:19;;;;;;;14.40;4.60;;;;;;;15.66;42.63;103208.22;5052986;28;20056;-77
2021/03/01 03:48:50;;;;;;;14.77;4.50;;;;;;;15.82;42.92;103208.91;5054578;28;20391;-77
2021/03/01 03:51:19;;;;;;;15.27;5.22;;;;;;;15.90;43.00;103199.22;5054536;28;20108;-77
2021/03/01 03:53:49;;;;;;;17.35;5.90;;;;;;;15.89;43.31;103201.13;5054445;28;20033;-77
2021/03/01 03:56:20;;;;;;;17.15;11.82;;;;;;;15.59;44.62;103195.84;5054408;28;20070;-77
2021/03/01 03:58:48;;;;;;;24.42;14.00;;;;;;;15.62;44.82;103193.38;5054475;28;20391;-77
2021/03/01 04:01:17;;;;;;;25.40;14.00;;;;;;;15.70;44.94;103197.44;5054296;28;20112;-77
2021/03/01 04:03:46;;;;;;;18.00;12.07;;;;;;;15.44;45.94;103202.28;5054403;28;20025;-77
2021/03/01 04:06:16;;;;;;;19.83;10.85;;;;;;;15.40;45.98;103191.00;5054205;28;20032;-78
2021/03/01 04:08:44;;;;;;;16.13;10.93;;;;;;;15.33;46.28;103193.25;5054048;28;20391;-77
2021/03/01 04:11:11;;;;;;;20.90;11.35;;;;;;;15.33;46.51;103184.19;5054190;28;20525;-78
2021/03/01 04:13:43;;;;;;;22.73;12.38;;;;;;;15.45;46.29;103190.97;5054095;28;20489;-77
2021/03/01 04:16:10;;;;;;;23.75;13.80;;;;;;;15.65;45.65;103180.97;5054190;28;20021;-78
2021/03/01 04:18:38;;;;;;;19.83;11.02;;;;;;;15.63;45.80;103186.75;5053979;28;20092;-77
2021/03/01 04:21:07;;;;;;;21.13;9.70;;;;;;;15.51;46.11;103186.28;5054019;28;20029;-78
2021/03/01 04:23:35;;;;;;;19.48;11.20;;;;;;;15.52;46.36;103183.22;5053874;28;20025;-78
2021/03/01 04:26:02;;;;;;;18.08;9.98;;;;;;;15.39;46.50;103181.09;5053893;28;20043;-78
2021/03/01 04:28:29;;;;;;;14.13;10.00;;;;;;;15.34;46.95;103181.16;5053337;28;20106;-78
2021/03/01 04:31:01;;;;;;;15.88;10.02;;;;;;;15.14;47.56;103181.28;5053765;28;20021;-78
2021/03/01 04:33:28;;;;;;;25.08;10.75;;;;;;;15.22;47.29;103186.19;5053433;28;20029;-78
2021/03/01 04:35:55;;;;;;;17.77;10.35;;;;;;;15.26;47.49;103190.00;5053613;28;20060;-78
2021/03/01 04:38:21;;;;;;;20.73;12.07;;;;;;;15.38;46.86;103189.66;5053386;28;20044;-77
2021/03/01 04:40:50;;;;;;;20.95;12.32;;;;;;;15.34;46.89;103192.19;5052361;28;20040;-78
2021/03/01 04:43:18;;;;;;;21.15;12.15;;;;;;;15.40;47.02;103193.75;5053249;28;20028;-77
2021/03/01 04:45:44;;;;;;;23.67;13.80;;;;;;;15.43;46.99;103195.16;5052962;28;20025;-77
2021/03/01 04:48:12;;;;;;;23.38;13.48;;;;;;;15.36;47.27;103195.47;5052841;28;20029;-78
2021/03/01 04:50:39;;;;;;;23.02;13.60;;;;;;;15.51;46.62;103200.88;5051818;28;20029;-78
2021/03/01 04:53:05;;;;;;;25.75;14.15;;;;;;;15.51;46.92;103189.03;5052345;28;20378;-77
2021/03/01 04:55:32;;;;;;;24.65;12.32;;;;;;;15.53;46.86;103195.06;5049734;28;20037;-78
2021/03/01 04:57:59;;;;;;;22.45;11.60;;;;;;;15.51;46.99;103191.78;5052280;28;20021;-78
2021/03/01 05:00:25;;;;;;;23.63;11.95;;;;;;;15.47;47.06;103188.75;5052442;28;20498;-78
2021/03/01 05:02:51;;;;;;;25.80;11.60;;;;;;;15.40;47.41;103182.75;5052075;28;20028;-78
2021/03/01 05:05:17;;;;;;;15.20;9.40;;;;;;;15.41;47.32;103187.16;5052201;28;20025;-78
2021/03/01 05:07:44;;;;;;;17.00;9.82;;;;;;;15.30;47.65;103182.00;5052137;28;20032;-79
2021/03/01 05:10:12;;;;;;;24.90;10.52;;;;;;;15.32;47.80;103175.09;5052235;28;20024;-78
2021/03/01 05:12:38;;;;;;;16.33;8.52;;;;;;;15.33;47.78;103171.22;5051889;28;20033;-78
2021/03/01 05:15:04;;;;;;;21.40;9.10;;;;;;;15.37;47.61;103174.25;5050792;28;20044;-79
2021/03/01 05:17:30;;;;;;;14.93;9.48;;;;;;;15.39;47.39;103175.59;5052011;28;20364;-78
2021/03/01 05:19:55;;;;;;;26.63;9.95;;;;;;;15.27;47.85;103172.41;5051813;28;20056;-79
2021/03/01 05:22:21;;;;;;;15.77;8.88;;;;;;;15.29;47.59;103169.34;5051931;28;20104;-78
2021/03/01 05:24:47;;;;;;;16.83;8.77;;;;;;;15.23;48.17;103171.31;5051948;28;20032;-78
2021/03/01 05:27:12;;;;;;;13.52;8.38;;;;;;;15.11;48.51;103171.66;5052032;28;20039;-78
2021/03/01 05:29:38;;;;;;;21.60;10.00;;;;;;;15.08;48.69;103166.72;5051871;28;20028;-78
2021/03/01 05:32:05;;;;;;;20.30;9.63;;;;;;;15.11;48.45;103162.56;5051942;28;20029;-78
2021/03/01 05:34:31;;;;;;;18.33;10.30;;;;;;;15.10;48.72;103155.41;5051840;28;20123;-78
2021/03/01 05:36:58;;;;;;;23.17;9.80;;;;;;;15.15;48.79;103160.91;5051793;28;20039;-78
2021/03/01 05:39:24;;;;;;;16.00;9.40;;;;;;;15.10;48.84;103167.25;5050746;28;20076;-78
2021/03/01 05:41:52;;;;;;;15.85;9.45;;;;;;;15.16;48.53;103166.13;5051411;28;20061;-78
2021/03/01 05:44:18;;;;;;;20.70;9.98;;;;;;;15.22;48.47;103169.66;5050538;28;20534;-77
2021/03/01 05:46:44;;;;;;;19.63;9.85;;;;;;;15.17;48.55;103165.00;5051583;28;20052;-78
2021/03/01 05:49:10;;;;;;;15.07;9.85;;;;;;;15.19;48.49;103164.75;5051614;28;20029;-78
2021/03/01 05:51:42;;;;;;;18.30;10.45;;;;;;;15.15;48.79;103158.97;5051489;28;20029;-78
2021/03/01 05:54:11;;;;;;;22.00;10.65;;;;;;;15.23;48.07;103155.59;5051655;28;20057;-78
2021/03/01 05:56:38;;;;;;;22.25;10.48;;;;;;;15.15;48.44;103155.38;5051493;28;20479;-78
2021/03/01 05:59:05;;;;;;;17.65;9.98;;;;;;;15.13;48.31;103154.84;5049790;28;20790;-77
2021/03/01 06:01:32;;;;;;;19.25;10.35;;;;;;;14.91;49.01;103147.81;5050884;28;20491;-78
2021/03/01 06:03:57;;;;;;;35.83;12.73;;;;;;;14.73;50.07;103147.63;5051113;28;20016;-80
2021/03/01 06:06:24;;;;;;;21.83;11.88;;;;;;;14.92;49.45;103143.13;5051620;28;20379;-78
2021/03/01 06:08:49;;;;;;;24.23;11.25;;;;;;;15.05;48.91;103142.53;5051503;28;20566;-78
2021/03/01 06:11:15;;;;;;;24.92;12.25;;;;;;;15.15;48.65;103138.88;5051208;28;20104;-77
2021/03/01 06:13:40;;;;;;;24.65;11.35;;;;;;;15.09;48.65;103137.25;5051245;28;20029;-78
2021/03/01 06:16:06;;;;;;;20.40;12.60;;;;;;;15.12;48.63;103139.44;5051408;28;20025;-77
2021/03/01 06:18:41;;;;;;;31.42;14.43;;;;;;;15.06;48.69;103133.16;5051536;28;20029;-78
2021/03/01 06:21:09;;;;;;;22.73;14.27;;;;;;;14.98;49.10;103134.56;5051339;28;20024;-78
2021/03/01 06:23:37;;;;;;;26.15;13.48;;;;;;;14.93;49.20;103131.84;5051374;28;20029;-78
2021/03/01 06:26:23;;;;;;;24.20;14.70;;;;;;;14.86;49.78;103138.75;5051389;28;20028;-78
2021/03/01 06:28:51;;;;;;;31.85;16.05;;;;;;;14.69;50.35;103133.63;5051258;28;20100;-78
2021/03/01 06:31:36;;;;;;;76.97;27.50;;;;;;;14.43;51.31;103136.47;5049990;28;20091;-78
2021/03/01 06:34:29;;;;;;;213.43;38.50;;;;;;;14.38;51.67;103138.41;5051054;28;20091;-78
2021/03/01 06:37:09;;;;;;;113.35;28.08;;;;;;;14.59;50.66;103134.50;5051108;28;20072;-78
2021/03/01 06:39:48;;;;;;;262.73;39.95;;;;;;;14.36;51.29;103137.88;5051156;28;20037;-78
2021/03/01 06:44:44;;;;;;;173.85;33.45;;;;;;;14.25;51.10;103141.75;5051648;28;20033;-79
2021/03/01 06:47:10;;;;;;;139.13;29.20;;;;;;;14.57;50.00;103144.13;5051684;28;20040;-78
2021/03/01 06:49:38;;;;;;;214.30;41.70;;;;;;;14.44;50.05;103135.38;5052003;28;20378;-78
2021/03/01 06:52:03;;;;;;;234.20;39.40;;;;;;;14.24;50.60;103140.94;5055233;28;20025;-78
2021/03/01 06:54:29;;;;;;;263.73;43.45;;;;;;;14.28;50.49;103142.03;5055568;28;20029;-78
2021/03/01 06:56:55;;;;;;;221.43;39.47;;;;;;;14.31;50.65;103148.88;5055584;28;20468;-79
2021/03/01 06:59:22;;;;;;;215.80;38.08;;;;;;;14.49;49.89;103139.22;5054087;28;20055;-78
2021/03/01 07:01:56;;;;;;;245.10;42.88;;;;;;;14.49;49.90;103144.72;5055556;28;20021;-78
2021/03/01 07:04:29;;;;;;;254.15;40.83;;;;;;;14.52;50.03;103146.94;5055308;28;20100;-78
2021/03/01 07:06:56;;;;;;;330.67;49.70;;;;;;;14.40;50.40;103152.69;5055398;28;20032;-78
2021/03/01 07:09:29;;;;;;;303.92;47.25;;;;;;;14.37;50.67;103143.09;5055218;28;20024;-78
2021/03/01 07:11:56;;;;;;;261.33;41.67;;;;;;;14.59;50.08;103150.19;5055274;28;20033;-78
2021/03/01 07:14:27;;;;;;;239.77;39.55;;;;;;;14.32;50.87;103145.03;5055180;28;20032;-78
2021/03/01 07:16:56;;;;;;;239.45;36.90;;;;;;;14.44;50.67;103148.28;5055095;28;20038;-78
2021/03/01 07:19:27;;;;;;;216.60;37.90;;;;;;;14.39;51.16;103151.06;5055481;28;20021;-77
2021/03/01 07:22:00;;;;;;;241.23;38.92;;;;;;;14.49;50.58;103153.78;5052370;28;20043;-78
2021/03/01 07:24:28;;;;;;;180.50;33.70;;;;;;;14.37;50.84;103153.28;5054044;28;20044;-77
2021/03/01 07:26:58;;;;;;;157.13;31.40;;;;;;;14.47;50.54;103163.44;5054819;28;20040;-77
2021/03/01 07:29:25;;;;;;;238.35;42.17;;;;;;;14.23;51.33;103164.03;5051615;28;20029;-76
2021/03/01 07:31:58;;;;;;;188.68;34.40;;;;;;;14.17;51.35;103162.38;5049669;28;20045;-72
2021/03/01 07:34:24;;;;;;;243.95;38.50;;;;;;;14.04;51.32;103165.72;5052477;28;20052;-75
2021/03/01 07:36:53;;;;;;;228.23;36.22;;;;;;;14.20;51.06;103174.75;5054349;28;20021;-75
2021/03/01 07:39:18;;;;;;;154.75;31.77;;;;;;;14.35;50.93;103167.28;5054543;28;20128;-76
2021/03/01 07:41:45;;;;;;;108.32;27.40;;;;;;;14.14;51.66;103163.78;5054572;28;20472;-77
2021/03/01 07:44:13;;;;;;;142.73;30.67;;;;;;;14.00;51.42;103168.19;5054554;28;20032;-78
2021/03/01 07:46:46;;;;;;;141.23;32.70;;;;;;;14.05;51.59;103159.94;5042958;28;20021;-78
2021/03/01 07:49:34;;;;;;;118.03;30.65;;;;;;;14.25;51.06;103161.81;5038963;28;20020;-78
2021/03/01 07:52:00;;;;;;;176.80;38.53;;;;;;;14.38;51.08;103172.25;5037318;28;20021;-79
2021/03/01 07:55:05;;;;;;;104.10;26.70;;;;;;;14.69;50.33;103169.41;5035913;28;20155;-79
2021/03/01 07:57:33;;;;;;;90.00;30.63;;;;;;;14.58;50.63;103165.84;5039475;28;20075;-78
2021/03/01 08:00:19;;;;;;;127.18;35.97;;;;;;;14.66;50.78;103169.94;5038022;28;20403;-75
2021/03/01 08:02:45;;;;;;;87.28;29.40;;;;;;;14.79;50.88;103174.03;5036888;28;20029;-78
2021/03/01 08:05:26;;;;;;;79.53;28.90;;;;;;;14.84;50.56;103169.34;5038227;28;20021;-78
2021/03/01 08:07:51;;;;;;;76.40;27.35;;;;;;;15.06;49.92;103168.94;5037212;28;20014;-77
2021/03/01 08:10:27;;;;;;;152.85;36.92;;;;;;;15.19;49.35;103164.75;5052960;28;20087;-77
2021/03/01 08:12:58;;;;;;;121.45;35.85;;;;;;;15.08;49.76;103171.41;5041078;28;20021;-78
2021/03/01 08:15:29;;;;;;;119.80;35.95;;;;;;;14.98;50.14;103170.34;5038548;28;20079;-78
2021/03/01 08:17:56;;;;;;;166.50;42.53;;;;;;;14.65;51.33;103171.88;5050780;28;20025;-77
2021/03/01 08:20:24;;;;;;;192.05;42.97;;;;;;;14.81;50.87;103169.91;5054079;28;20112;-78
2021/03/01 08:23:02;;;;;;;245.48;47.25;;;;;;;14.84;50.75;103172.09;5054011;28;20545;-78
2021/03/01 08:25:46;;;;;;;269.65;51.08;;;;;;;14.98;50.20;103164.84;5053827;28;20487;-77
2021/03/01 08:28:17;;;;;;;269.00;51.00;;;;;;;15.05;50.24;103163.72;5037768;28;20029;-79
2021/03/01 08:30:47;;;;;;;386.83;64.72;;;;;;;14.96;50.34;103171.72;5037876;28;21551;-78
2021/03/01 08:33:14;;;;;;;;;;;;;;;15.03;50.14;103171.41;5037919;28;20063;-78
2021/03/01 08:35:46;;;;;;;279.83;58.63;;;;;;;14.90;50.59;103176.47;5037231;28;20371;-80
2021/03/01 08:38:14;;;;;;;258.02;57.08;;;;;;;14.70;51.32;103173.81;5043517;28;20037;-79
2021/03/01 08:40:54;;;;;;;231.65;55.67;;;;;;;14.93;50.47;103181.38;5039621;28;20382;-79
2021/03/01 08:43:47;;;;;;;;;;;;;;;15.02;50.37;103172.53;5037185;28;20028;-78
2021/03/01 08:46:16;;;;;;;141.52;48.95;;;;;;;14.97;50.33;103165.16;5063928;28;19950;-78
2021/03/01 08:48:48;;;;;;;193.93;55.80;;;;;;;14.90;50.84;103173.72;5031468;28;20029;-80
2021/03/01 08:51:15;;;;;;;240.45;58.58;;;;;;;15.06;50.61;103173.63;5029546;28;20029;-78
2021/03/01 08:53:40;;;;;;;130.00;43.03;;;;;;;15.14;50.60;103171.09;5034596;28;20021;-81
2021/03/01 08:56:16;;;;;;;200.27;57.00;;;;;;;15.13;50.33;103166.69;5036345;28;20028;-85
2021/03/01 08:58:42;;;;;;;115.70;47.13;;;;;;;15.37;49.91;103172.31;5035918;28;20021;-79
2021/03/01 09:01:08;;;;;;;160.50;52.53;;;;;;;14.97;51.27;103170.66;5035944;28;20712;-79
2021/03/01 09:03:35;;;;;;;126.43;48.15;;;;;;;14.84;51.61;103171.25;5035306;28;20041;-80
2021/03/01 09:06:07;;;;;;;121.15;49.25;;;;;;;15.06;51.28;103157.09;5043174;28;20045;-79
2021/03/01 09:08:42;;;;;;;161.23;52.95;;;;;;;15.13;50.98;103165.88;5052314;28;20112;-79
2021/03/01 09:11:18;;;;;;;118.10;49.70;;;;;;;15.33;50.36;103165.72;5051088;28;20051;-79
2021/03/01 09:13:45;;;;;;;115.15;49.63;;;;;;;15.22;50.76;103164.97;5051288;28;20029;-79
2021/03/01 09:16:11;;;;;;;101.97;46.15;;;;;;;14.93;52.15;103155.78;5052497;28;20029;-79
2021/03/01 09:18:38;;;;;;;111.80;50.63;;;;;;;15.12;51.51;103156.78;5049722;28;20155;-79
2021/03/01 09:21:05;;;;;;;107.18;48.38;;;;;;;15.22;51.05;103164.97;5046324;28;20662;-78
2021/03/01 09:23:46;;;;;;;113.55;49.92;;;;;;;15.26;51.14;103151.44;5050354;28;20091;-79
2021/03/01 09:26:25;;;;;;;113.32;50.70;;;;;;;15.58;50.18;103156.44;5052495;28;20104;-79
2021/03/01 09:28:53;;;;;;;111.28;50.42;;;;;;;15.46;50.69;103147.72;5051956;28;20044;-78
2021/03/01 09:31:19;;;;;;;111.10;49.47;;;;;;;15.43;50.83;103140.88;5049185;28;20119;-79
2021/03/01 09:33:45;;;;;;;115.85;49.00;;;;;;;15.44;50.86;103139.75;5050280;28;20454;-78
2021/03/01 09:36:12;;;;;;;106.32;48.42;;;;;;;15.45;51.14;103143.31;5051122;28;20035;-78
2021/03/01 09:38:40;;;;;;;99.20;48.28;;;;;;;15.50;51.23;103138.59;5052333;28;20053;-79
2021/03/01 09:41:10;;;;;;;91.10;48.03;;;;;;;15.55;50.88;103140.47;5051285;28;20043;-79
2021/03/01 09:43:38;;;;;;;93.20;47.83;;;;;;;15.55;50.88;103141.28;5051039;28;20115;-79
2021/03/01 09:46:04;;;;;;;93.07;49.55;;;;;;;15.81;50.14;103127.34;5052050;28;20399;-78
2021/03/01 09:48:42;;;;;;;113.68;51.78;;;;;;;15.62;50.56;103129.16;5051772;28;20055;-78
2021/03/01 09:51:08;;;;;;;95.00;47.67;;;;;;;15.71;50.65;103116.38;5050691;28;20111;-78
2021/03/01 09:53:35;;;;;;;83.13;47.42;;;;;;;15.71;50.92;103116.38;5051819;28;20036;-78
2021/03/01 09:56:02;;;;;;;108.82;54.45;;;;;;;15.97;50.34;103115.03;5047697;28;20482;-79
2021/03/01 09:58:40;;;;;;;91.82;48.53;;;;;;;15.93;50.61;103108.44;5051791;28;20025;-79
2021/03/01 10:01:06;;;;;;;98.70;52.03;;;;;;;16.26;49.47;103117.75;5051972;28;20524;-78
2021/03/01 10:03:37;;;;;;;94.45;51.20;;;;;;;16.20;49.92;103112.56;5051144;28;20075;-78
2021/03/01 10:06:03;;;;;;;99.32;51.80;;;;;;;16.35;49.22;103106.88;5052053;28;20040;-80
2021/03/01 10:08:29;;;;;;;97.70;51.78;;;;;;;16.36;49.28;103108.53;5051323;28;20428;-79
2021/03/01 10:10:56;;;;;;;97.45;52.90;;;;;;;16.23;49.82;103114.75;5048729;28;20040;-78
2021/03/01 10:13:32;;;;;;;101.47;57.35;;;;;;;16.21;49.70;103109.53;5049716;28;20025;-80
2021/03/01 10:15:59;;;;;;;112.10;66.90;;;;;;;16.24;49.02;103111.69;5050787;28;20032;-79
2021/03/01 10:18:31;;;;;;;119.65;71.15;;;;;;;16.17;49.23;103111.25;5050436;28;20025;-79
2021/03/01 10:21:05;;;;;;;117.10;69.35;;;;;;;16.34;48.37;103108.00;5049806;28;20029;-78
2021/03/01 10:23:41;;;;;;;108.78;65.97;;;;;;;16.16;48.54;103109.56;5049612;28;20059;-79
2021/03/01 10:26:17;;;;;;;105.18;68.78;;;;;;;16.48;48.04;103119.97;5052521;28;20116;-76
2021/03/01 10:28:55;;;;;;;111.53;67.45;;;;;;;16.73;47.52;103115.25;5056028;28;20080;-77
2021/03/01 10:31:26;;;;;;;97.35;68.22;;;;;;;16.77;47.51;103121.81;5055076;28;20090;-78
2021/03/01 10:34:00;;;;;;;107.60;67.05;;;;;;;16.87;47.07;103121.69;5054315;28;20570;-78
2021/03/01 10:36:34;;;;;;;92.28;61.95;;;;;;;16.98;47.21;103112.09;5051353;28;20029;-79
2021/03/01 10:39:03;;;;;;;96.82;65.18;;;;;;;17.01;46.48;103121.75;5054377;28;20045;-79
2021/03/01 10:41:31;;;;;;;91.93;64.53;;;;;;;16.88;46.52;103117.78;5055481;28;20097;-79
2021/03/01 10:44:03;;;;;;;89.90;65.20;;;;;;;16.91;46.37;103117.19;5055560;28;20025;-78
2021/03/01 10:46:36;;;;;;;86.78;59.60;;;;;;;16.87;46.05;103116.16;5054740;28;20032;-77
2021/03/01 10:49:12;;;;;;;88.93;59.50;;;;;;;17.13;45.47;103108.28;5054074;28;20050;-77
2021/03/01 10:51:38;;;;;;;83.72;58.25;;;;;;;16.75;46.47;103108.31;5052415;28;20434;-78
2021/03/01 10:54:04;;;;;;;81.95;57.20;;;;;;;16.31;46.79;103105.81;5054424;28;20025;-78
2021/03/01 10:56:29;;;;;;;70.65;51.25;;;;;;;16.24;46.98;103106.16;5055228;28;20021;-78
2021/03/01 10:58:55;;;;;;;75.63;53.20;;;;;;;16.64;46.29;103098.50;5038823;28;20033;-78
2021/03/01 11:01:20;;;;;;;76.63;51.78;;;;;;;16.41;46.40;103104.88;5050043;28;20029;-79
2021/03/01 11:03:46;;;;;;;71.90;52.63;;;;;;;16.35;46.87;103104.13;5054808;28;20116;-80
2021/03/01 11:06:12;;;;;;;68.95;48.80;;;;;;;16.30;47.08;103099.47;5055188;28;20021;-79
2021/03/01 11:08:37;;;;;;;64.13;47.72;;;;;;;16.12;47.22;103111.28;5054810;28;20029;-79
2021/03/01 11:11:05;;;;;;;64.22;45.33;;;;;;;16.20;46.63;103118.09;5054641;28;20029;-80
2021/03/01 11:13:30;;;;;;;69.05;46.28;;;;;;;16.38;46.32;103109.03;5054766;28;20024;-79
2021/03/01 11:15:56;;;;;;;63.55;47.20;;;;;;;16.87;45.13;103105.94;5054718;28;20037;-79
2021/03/01 11:18:21;;;;;;;67.20;47.20;;;;;;;16.52;45.92;103101.69;5054207;28;20595;-79
2021/03/01 11:20:47;;;;;;;63.55;48.15;;;;;;;16.69;45.65;103103.97;5052250;28;20487;-78
2021/03/01 11:23:12;;;;;;;65.28;46.22;;;;;;;16.88;45.43;103093.75;5054814;28;20032;-79